sensor_id;sensor_type;location;lat;lon;timestamp;pressure;altitude;pressure_sealevel;temperature;humidity
46111;BME280;31849;55.992;37.252;2024-01-25T00:02:57;97839.72;;;-0.97;81.33
46111;BME280;31849;55.992;37.252;2024-01-25T00:08:01;97831.31;;;-0.91;80.62
46111;BME280;31849;55.992;37.252;2024-01-25T00:13:05;97823.75;;;-0.85;80.42
46111;BME280;31849;55.992;37.252;2024-01-25T00:18:10;97816.00;;;-0.91;82.23
46111;BME280;31849;55.992;37.252;2024-01-25T00:23:14;97808.31;;;-0.93;81.99
46111;BME280;31849;55.992;37.252;2024-01-25T00:28:17;97811.63;;;-0.98;81.83
46111;BME280;31849;55.992;37.252;2024-01-25T00:33:23;97807.44;;;-0.95;81.97
46111;BME280;31849;55.992;37.252;2024-01-25T00:38:27;97796.38;;;-0.95;82.45
46111;BME280;31849;55.992;37.252;2024-01-25T00:43:31;97798.91;;;-0.97;82.81
46111;BME280;31849;55.992;37.252;2024-01-25T00:48:37;97788.72;;;-0.95;82.10
46111;BME280;31849;55.992;37.252;2024-01-25T00:53:43;97784.50;;;-0.95;82.69
46111;BME280;31849;55.992;37.252;2024-01-25T00:58:47;97773.56;;;-0.87;81.97
46111;BME280;31849;55.992;37.252;2024-01-25T01:03:53;97758.13;;;-0.94;82.29
46111;BME280;31849;55.992;37.252;2024-01-25T01:08:58;97753.97;;;-0.89;82.04
46111;BME280;31849;55.992;37.252;2024-01-25T01:14:02;97746.38;;;-0.84;81.99
46111;BME280;31849;55.992;37.252;2024-01-25T01:19:08;97746.31;;;-0.89;82.21
46111;BME280;31849;55.992;37.252;2024-01-25T01:24:12;97734.41;;;-0.86;82.02
46111;BME280;31849;55.992;37.252;2024-01-25T01:29:16;97725.97;;;-0.84;81.80
46111;BME280;31849;55.992;37.252;2024-01-25T01:34:21;97734.50;;;-0.80;81.70
46111;BME280;31849;55.992;37.252;2024-01-25T01:39:25;97724.44;;;-0.73;81.34
46111;BME280;31849;55.992;37.252;2024-01-25T01:44:29;97724.47;;;-0.71;80.78
46111;BME280;31849;55.992;37.252;2024-01-25T01:49:34;97719.22;;;-0.79;81.17
46111;BME280;31849;55.992;37.252;2024-01-25T01:54:40;97699.69;;;-0.78;80.49
46111;BME280;31849;55.992;37.252;2024-01-25T01:59:43;97720.28;;;-0.64;80.69
46111;BME280;31849;55.992;37.252;2024-01-25T02:04:49;97721.84;;;-0.76;80.86
46111;BME280;31849;55.992;37.252;2024-01-25T02:09:53;97712.53;;;-0.72;80.82
46111;BME280;31849;55.992;37.252;2024-01-25T02:14:57;97699.69;;;-0.78;80.83
46111;BME280;31849;55.992;37.252;2024-01-25T02:20:03;97713.22;;;-0.82;80.60
46111;BME280;31849;55.992;37.252;2024-01-25T02:25:09;97705.56;;;-0.84;80.34
46111;BME280;31849;55.992;37.252;2024-01-25T02:30:13;97706.47;;;-0.77;79.71
46111;BME280;31849;55.992;37.252;2024-01-25T02:35:17;97697.16;;;-0.75;80.26
46111;BME280;31849;55.992;37.252;2024-01-25T02:40:22;97698.03;;;-0.73;79.89
46111;BME280;31849;55.992;37.252;2024-01-25T02:45:26;97702.81;;;-0.35;78.02
46111;BME280;31849;55.992;37.252;2024-01-25T02:50:30;97695.91;;;-0.42;78.21
46111;BME280;31849;55.992;37.252;2024-01-25T02:55:35;97690.00;;;-0.38;77.92
46111;BME280;31849;55.992;37.252;2024-01-25T03:00:39;97683.75;;;-0.62;79.37
46111;BME280;31849;55.992;37.252;2024-01-25T03:05:43;97679.34;;;-0.72;80.07
46111;BME280;31849;55.992;37.252;2024-01-25T03:10:49;97684.38;;;-0.78;80.44
46111;BME280;31849;55.992;37.252;2024-01-25T03:15:53;97679.28;;;-0.77;80.17
46111;BME280;31849;55.992;37.252;2024-01-25T03:20:57;97682.69;;;-0.76;80.27
46111;BME280;31849;55.992;37.252;2024-01-25T03:26:03;97676.59;;;-0.87;80.50
46111;BME280;31849;55.992;37.252;2024-01-25T03:31:07;97678.25;;;-0.88;80.37
46111;BME280;31849;55.992;37.252;2024-01-25T03:36:14;97675.53;;;-1.00;82.94
46111;BME280;31849;55.992;37.252;2024-01-25T03:41:19;97654.06;;;-1.16;81.24
46111;BME280;31849;55.992;37.252;2024-01-25T03:46:23;97662.84;;;-0.96;80.47
46111;BME280;31849;55.992;37.252;2024-01-25T03:51:27;97652.66;;;-0.94;80.40
46111;BME280;31849;55.992;37.252;2024-01-25T03:56:32;97662.97;;;-0.86;79.58
46111;BME280;31849;55.992;37.252;2024-01-25T04:01:41;97650.81;;;-1.06;80.47
46111;BME280;31849;55.992;37.252;2024-01-25T04:06:45;97645.75;;;-1.03;80.78
46111;BME280;31849;55.992;37.252;2024-01-25T04:11:51;97648.19;;;-1.11;80.87
46111;BME280;31849;55.992;37.252;2024-01-25T04:16:55;97646.47;;;-1.10;81.66
46111;BME280;31849;55.992;37.252;2024-01-25T04:21:59;97642.19;;;-1.14;81.70
46111;BME280;31849;55.992;37.252;2024-01-25T04:27:04;97639.66;;;-1.13;81.39
46111;BME280;31849;55.992;37.252;2024-01-25T04:32:08;97641.41;;;-1.09;81.55
46111;BME280;31849;55.992;37.252;2024-01-25T04:37:12;97648.22;;;-1.09;81.00
46111;BME280;31849;55.992;37.252;2024-01-25T04:42:18;97648.16;;;-1.12;80.84
46111;BME280;31849;55.992;37.252;2024-01-25T04:47:21;97648.78;;;-1.27;81.47
46111;BME280;31849;55.992;37.252;2024-01-25T04:52:25;97643.81;;;-1.19;81.22
46111;BME280;31849;55.992;37.252;2024-01-25T04:57:30;97641.28;;;-1.16;81.03
46111;BME280;31849;55.992;37.252;2024-01-25T05:02:34;97644.56;;;-1.25;80.72
46111;BME280;31849;55.992;37.252;2024-01-25T05:07:38;97649.63;;;-1.28;80.95
46111;BME280;31849;55.992;37.252;2024-01-25T05:12:44;97629.09;;;-1.36;80.43
46111;BME280;31849;55.992;37.252;2024-01-25T05:17:47;97637.84;;;-1.21;80.04
46111;BME280;31849;55.992;37.252;2024-01-25T05:22:52;97646.31;;;-1.22;79.93
46111;BME280;31849;55.992;37.252;2024-01-25T05:27:57;97635.88;;;-1.38;80.51
46111;BME280;31849;55.992;37.252;2024-01-25T05:33:01;97621.47;;;-1.36;80.33
46111;BME280;31849;55.992;37.252;2024-01-25T05:38:05;97648.84;;;-1.24;80.27
46111;BME280;31849;55.992;37.252;2024-01-25T05:43:12;97638.34;;;-1.43;79.48
46111;BME280;31849;55.992;37.252;2024-01-25T05:48:16;97649.75;;;-1.19;79.22
46111;BME280;31849;55.992;37.252;2024-01-25T05:53:20;97638.53;;;-1.32;79.66
46111;BME280;31849;55.992;37.252;2024-01-25T05:58:26;97634.22;;;-1.36;79.28
46111;BME280;31849;55.992;37.252;2024-01-25T06:03:33;97635.06;;;-1.35;79.08
46111;BME280;31849;55.992;37.252;2024-01-25T06:08:37;97636.72;;;-1.39;79.94
46111;BME280;31849;55.992;37.252;2024-01-25T06:13:42;97640.38;;;-1.23;78.72
46111;BME280;31849;55.992;37.252;2024-01-25T06:18:47;97642.00;;;-1.27;78.96
46111;BME280;31849;55.992;37.252;2024-01-25T06:23:52;97638.56;;;-1.30;78.69
46111;BME280;31849;55.992;37.252;2024-01-25T06:28:57;97644.66;;;-1.19;78.48
46111;BME280;31849;55.992;37.252;2024-01-25T06:34:01;97631.84;;;-1.22;77.99
46111;BME280;31849;55.992;37.252;2024-01-25T06:39:05;97637.78;;;-1.26;78.02
46111;BME280;31849;55.992;37.252;2024-01-25T06:44:10;97645.31;;;-1.31;77.77
46111;BME280;31849;55.992;37.252;2024-01-25T06:49:14;97644.59;;;-1.24;78.01
46111;BME280;31849;55.992;37.252;2024-01-25T06:54:18;97646.44;;;-1.13;77.54
46111;BME280;31849;55.992;37.252;2024-01-25T06:59:26;97648.91;;;-1.19;77.53
46111;BME280;31849;55.992;37.252;2024-01-25T07:04:30;97646.44;;;-1.13;77.39
46111;BME280;31849;55.992;37.252;2024-01-25T07:09:36;97651.44;;;-1.21;77.37
46111;BME280;31849;55.992;37.252;2024-01-25T07:14:41;97648.22;;;-1.08;76.83
46111;BME280;31849;55.992;37.252;2024-01-25T07:19:45;97646.63;;;-1.01;75.92
46111;BME280;31849;55.992;37.252;2024-01-25T07:24:49;97643.34;;;-0.91;75.70
46111;BME280;31849;55.992;37.252;2024-01-25T07:29:54;97651.75;;;-1.01;75.44
46111;BME280;31849;55.992;37.252;2024-01-25T07:34:59;97646.81;;;-0.87;75.29
46111;BME280;31849;55.992;37.252;2024-01-25T07:40:12;97644.31;;;-0.82;74.83
46111;BME280;31849;55.992;37.252;2024-01-25T07:45:17;97656.28;;;-0.80;74.17
46111;BME280;31849;55.992;37.252;2024-01-25T07:50:21;97649.50;;;-0.76;74.46
46111;BME280;31849;55.992;37.252;2024-01-25T07:55:25;97654.63;;;-0.76;73.12
46111;BME280;31849;55.992;37.252;2024-01-25T08:00:30;97647.28;;;-0.51;72.91
46111;BME280;31849;55.992;37.252;2024-01-25T08:05:34;97651.28;;;-0.72;72.94
46111;BME280;31849;55.992;37.252;2024-01-25T08:10:49;97646.19;;;-0.71;72.78
46111;BME280;31849;55.992;37.252;2024-01-25T08:15:54;97644.38;;;-0.79;72.02
46111;BME280;31849;55.992;37.252;2024-01-25T08:20:58;97659.97;;;-0.59;72.04
46111;BME280;31849;55.992;37.252;2024-01-25T08:26:03;97647.97;;;-0.63;71.89
46111;BME280;31849;55.992;37.252;2024-01-25T08:31:09;97659.69;;;-0.79;71.98
46111;BME280;31849;55.992;37.252;2024-01-25T08:36:13;97655.56;;;-0.71;72.01
46111;BME280;31849;55.992;37.252;2024-01-25T08:41:17;97652.88;;;-0.77;71.61
46111;BME280;31849;55.992;37.252;2024-01-25T08:46:22;97656.25;;;-0.81;71.52
46111;BME280;31849;55.992;37.252;2024-01-25T08:51:26;97655.41;;;-0.80;72.00
46111;BME280;31849;55.992;37.252;2024-01-25T08:56:30;97658.88;;;-0.75;71.67
46111;BME280;31849;55.992;37.252;2024-01-25T09:01:35;97658.16;;;-0.66;71.14
46111;BME280;31849;55.992;37.252;2024-01-25T09:06:40;97653.03;;;-0.68;70.77
46111;BME280;31849;55.992;37.252;2024-01-25T09:11:43;97653.00;;;-0.71;70.82
46111;BME280;31849;55.992;37.252;2024-01-25T09:16:49;97648.59;;;-0.83;70.77
46111;BME280;31849;55.992;37.252;2024-01-25T09:21:54;97642.66;;;-0.80;70.66
46111;BME280;31849;55.992;37.252;2024-01-25T09:26:59;97646.34;;;-0.57;69.93
46111;BME280;31849;55.992;37.252;2024-01-25T09:32:05;97641.28;;;-0.54;69.88
46111;BME280;31849;55.992;37.252;2024-01-25T09:37:10;97632.91;;;-0.42;70.09
46111;BME280;31849;55.992;37.252;2024-01-25T09:42:14;97631.31;;;-0.35;69.69
46111;BME280;31849;55.992;37.252;2024-01-25T09:47:19;97629.56;;;-0.36;69.57
46111;BME280;31849;55.992;37.252;2024-01-25T09:52:24;97629.59;;;-0.33;68.99
46111;BME280;31849;55.992;37.252;2024-01-25T09:57:30;97624.34;;;-0.48;68.83
46111;BME280;31849;55.992;37.252;2024-01-25T10:02:36;97620.28;;;-0.31;69.06
46111;BME280;31849;55.992;37.252;2024-01-25T10:07:41;97628.59;;;-0.50;69.00
46111;BME280;31849;55.992;37.252;2024-01-25T10:12:46;97628.44;;;-0.61;70.11
46111;BME280;31849;55.992;37.252;2024-01-25T10:17:52;97627.47;;;-0.71;70.42
46111;BME280;31849;55.992;37.252;2024-01-25T10:23:16;97631.66;;;-0.75;70.33
46111;BME280;31849;55.992;37.252;2024-01-25T10:28:20;97635.56;;;-1.01;70.37
46111;BME280;31849;55.992;37.252;2024-01-25T10:33:27;97633.13;;;-0.92;69.97
46111;BME280;31849;55.992;37.252;2024-01-25T10:38:31;97630.97;;;-0.61;70.13
46111;BME280;31849;55.992;37.252;2024-01-25T10:43:38;97629.66;;;-0.97;70.13
46111;BME280;31849;55.992;37.252;2024-01-25T10:48:44;97628.03;;;-0.91;70.34
46111;BME280;31849;55.992;37.252;2024-01-25T10:53:48;97635.88;;;-0.80;70.25
46111;BME280;31849;55.992;37.252;2024-01-25T10:58:53;97630.75;;;-0.80;69.94
46111;BME280;31849;55.992;37.252;2024-01-25T11:03:59;97645.31;;;-0.73;69.80
46111;BME280;31849;55.992;37.252;2024-01-25T11:09:06;97634.94;;;-0.85;69.59
46111;BME280;31849;55.992;37.252;2024-01-25T11:14:12;97610.09;;;-0.98;69.96
46111;BME280;31849;55.992;37.252;2024-01-25T11:19:19;97645.22;;;-0.77;69.62
46111;BME280;31849;55.992;37.252;2024-01-25T11:24:24;97640.91;;;-0.84;70.20
46111;BME280;31849;55.992;37.252;2024-01-25T11:29:28;97647.06;;;-0.67;69.49
46111;BME280;31849;55.992;37.252;2024-01-25T11:34:34;97644.72;;;-0.51;69.82
46111;BME280;31849;55.992;37.252;2024-01-25T11:39:38;97651.75;;;-0.32;69.57
46111;BME280;31849;55.992;37.252;2024-01-25T11:44:42;97640.06;;;-0.11;68.93
46111;BME280;31849;55.992;37.252;2024-01-25T11:49:47;97648.94;;;0.23;68.60
46111;BME280;31849;55.992;37.252;2024-01-25T11:54:53;97649.53;;;-0.04;69.11
46111;BME280;31849;55.992;37.252;2024-01-25T11:59:56;97662.28;;;-0.06;69.16
46111;BME280;31849;55.992;37.252;2024-01-25T12:05:03;97665.41;;;-0.30;76.04
46111;BME280;31849;55.992;37.252;2024-01-25T12:10:15;97664.72;;;-0.15;75.80
46111;BME280;31849;55.992;37.252;2024-01-25T12:15:20;97654.59;;;-0.07;73.86
46111;BME280;31849;55.992;37.252;2024-01-25T12:20:26;97657.84;;;-0.22;71.06
46111;BME280;31849;55.992;37.252;2024-01-25T12:25:31;97657.84;;;-0.24;71.16
46111;BME280;31849;55.992;37.252;2024-01-25T12:30:34;97662.13;;;-0.20;70.85
46111;BME280;31849;55.992;37.252;2024-01-25T12:35:42;97666.09;;;-0.43;71.76
46111;BME280;31849;55.992;37.252;2024-01-25T12:40:48;97664.25;;;-0.54;72.07
46111;BME280;31849;55.992;37.252;2024-01-25T12:45:53;97672.72;;;-0.59;72.48
46111;BME280;31849;55.992;37.252;2024-01-25T12:51:08;97683.03;;;-0.51;72.17
46111;BME280;31849;55.992;37.252;2024-01-25T12:56:12;97673.44;;;-0.69;73.03
46111;BME280;31849;55.992;37.252;2024-01-25T13:01:16;97682.94;;;-0.59;72.61
46111;BME280;31849;55.992;37.252;2024-01-25T13:06:22;97687.00;;;-0.72;72.98
46111;BME280;31849;55.992;37.252;2024-01-25T13:11:26;97687.31;;;-0.49;72.42
46111;BME280;31849;55.992;37.252;2024-01-25T13:16:30;97687.13;;;-0.61;72.85
46111;BME280;31849;55.992;37.252;2024-01-25T13:21:35;97694.81;;;-0.60;72.76
46111;BME280;31849;55.992;37.252;2024-01-25T13:26:40;97695.78;;;-0.53;73.05
46111;BME280;31849;55.992;37.252;2024-01-25T13:31:44;97701.47;;;-0.73;73.99
46111;BME280;31849;55.992;37.252;2024-01-25T13:36:50;97708.13;;;-0.81;73.76
46111;BME280;31849;55.992;37.252;2024-01-25T13:41:54;97707.41;;;-0.72;73.35
46111;BME280;31849;55.992;37.252;2024-01-25T13:46:58;97715.72;;;-0.85;74.14
46111;BME280;31849;55.992;37.252;2024-01-25T13:52:05;97719.09;;;-0.88;73.67
46111;BME280;31849;55.992;37.252;2024-01-25T13:57:09;97718.19;;;-0.92;74.56
46111;BME280;31849;55.992;37.252;2024-01-25T14:02:13;97706.22;;;-0.96;74.84
46111;BME280;31849;55.992;37.252;2024-01-25T14:07:19;97715.41;;;-1.06;75.57
46111;BME280;31849;55.992;37.252;2024-01-25T14:12:23;97721.66;;;-0.86;74.53
46111;BME280;31849;55.992;37.252;2024-01-25T14:17:27;97715.41;;;-1.06;75.06
46111;BME280;31849;55.992;37.252;2024-01-25T14:22:33;97723.19;;;-0.99;75.17
46111;BME280;31849;55.992;37.252;2024-01-25T14:27:39;97730.31;;;-0.78;74.36
46111;BME280;31849;55.992;37.252;2024-01-25T14:32:43;97731.88;;;-0.86;75.20
46111;BME280;31849;55.992;37.252;2024-01-25T14:37:50;97738.13;;;-0.66;74.84
46111;BME280;31849;55.992;37.252;2024-01-25T14:42:54;97732.31;;;-0.56;74.46
46111;BME280;31849;55.992;37.252;2024-01-25T14:47:58;97740.69;;;-0.64;74.20
46111;BME280;31849;55.992;37.252;2024-01-25T14:53:03;97739.72;;;-0.76;74.89
46111;BME280;31849;55.992;37.252;2024-01-25T14:58:07;97738.88;;;-0.73;74.91
46111;BME280;31849;55.992;37.252;2024-01-25T15:03:12;97752.47;;;-0.76;75.22
46111;BME280;31849;55.992;37.252;2024-01-25T15:08:17;97752.31;;;-0.83;75.11
46111;BME280;31849;55.992;37.252;2024-01-25T15:13:21;97753.81;;;-0.98;75.00
46111;BME280;31849;55.992;37.252;2024-01-25T15:18:25;97757.47;;;-0.80;75.05
46111;BME280;31849;55.992;37.252;2024-01-25T15:23:31;97776.31;;;-0.74;74.84
46111;BME280;31849;55.992;37.252;2024-01-25T15:28:35;97771.34;;;-0.63;74.48
46111;BME280;31849;55.992;37.252;2024-01-25T15:33:39;97771.22;;;-0.72;74.50
46111;BME280;31849;55.992;37.252;2024-01-25T15:38:44;97772.06;;;-0.73;74.46
46111;BME280;31849;55.992;37.252;2024-01-25T15:43:48;97775.56;;;-0.66;74.28
46111;BME280;31849;55.992;37.252;2024-01-25T15:48:52;97784.97;;;-0.64;74.37
46111;BME280;31849;55.992;37.252;2024-01-25T15:53:58;97793.88;;;-0.92;74.92
46111;BME280;31849;55.992;37.252;2024-01-25T15:59:02;97788.78;;;-0.91;74.37
46111;BME280;31849;55.992;37.252;2024-01-25T16:04:06;97789.72;;;-0.85;74.27
46111;BME280;31849;55.992;37.252;2024-01-25T16:09:12;97790.66;;;-0.80;73.90
46111;BME280;31849;55.992;37.252;2024-01-25T16:14:16;97799.94;;;-0.85;73.91
46111;BME280;31849;55.992;37.252;2024-01-25T16:19:19;97801.41;;;-0.98;73.99
46111;BME280;31849;55.992;37.252;2024-01-25T16:24:25;97805.50;;;-1.10;74.06
46111;BME280;31849;55.992;37.252;2024-01-25T16:29:29;97807.34;;;-1.02;74.12
46111;BME280;31849;55.992;37.252;2024-01-25T16:34:33;97809.81;;;-1.04;73.85
46111;BME280;31849;55.992;37.252;2024-01-25T16:39:40;97815.56;;;-1.16;74.57
46111;BME280;31849;55.992;37.252;2024-01-25T16:44:44;97810.25;;;-1.28;74.91
46111;BME280;31849;55.992;37.252;2024-01-25T16:49:47;97821.56;;;-1.15;74.36
46111;BME280;31849;55.992;37.252;2024-01-25T16:54:53;97810.44;;;-1.17;74.82
46111;BME280;31849;55.992;37.252;2024-01-25T16:59:57;97812.13;;;-1.19;74.81
46111;BME280;31849;55.992;37.252;2024-01-25T17:05:05;97815.53;;;-1.17;74.76
46111;BME280;31849;55.992;37.252;2024-01-25T17:10:10;97822.47;;;-1.10;74.45
46111;BME280;31849;55.992;37.252;2024-01-25T17:15:17;97818.31;;;-1.07;74.57
46111;BME280;31849;55.992;37.252;2024-01-25T17:20:20;97825.06;;;-1.07;74.76
46111;BME280;31849;55.992;37.252;2024-01-25T17:25:26;97838.44;;;-1.20;75.20
46111;BME280;31849;55.992;37.252;2024-01-25T17:30:30;97833.47;;;-1.14;75.09
46111;BME280;31849;55.992;37.252;2024-01-25T17:35:36;97835.06;;;-1.19;75.54
46111;BME280;31849;55.992;37.252;2024-01-25T17:40:42;97839.31;;;-1.21;75.43
46111;BME280;31849;55.992;37.252;2024-01-25T17:45:47;97838.44;;;-1.20;75.13
46111;BME280;31849;55.992;37.252;2024-01-25T17:50:53;97845.25;;;-1.21;75.44
46111;BME280;31849;55.992;37.252;2024-01-25T17:56:01;97850.28;;;-1.26;75.79
46111;BME280;31849;55.992;37.252;2024-01-25T18:01:05;97850.19;;;-1.30;75.68
46111;BME280;31849;55.992;37.252;2024-01-25T18:06:10;97854.66;;;-1.18;74.77
46111;BME280;31849;55.992;37.252;2024-01-25T18:11:15;97863.28;;;-1.10;75.61
46111;BME280;31849;55.992;37.252;2024-01-25T18:16:19;97860.53;;;-1.22;75.69
46111;BME280;31849;55.992;37.252;2024-01-25T18:21:23;97872.44;;;-1.23;75.87
46111;BME280;31849;55.992;37.252;2024-01-25T18:26:29;97875.78;;;-1.24;75.96
46111;BME280;31849;55.992;37.252;2024-01-25T18:31:33;97879.88;;;-1.32;76.53
46111;BME280;31849;55.992;37.252;2024-01-25T18:36:39;97875.72;;;-1.29;76.48
46111;BME280;31849;55.992;37.252;2024-01-25T18:41:44;97888.53;;;-1.24;76.08
46111;BME280;31849;55.992;37.252;2024-01-25T18:46:49;97890.06;;;-1.32;76.56
46111;BME280;31849;55.992;37.252;2024-01-25T18:51:53;97891.63;;;-1.40;76.50
46111;BME280;31849;55.992;37.252;2024-01-25T18:57:00;97903.38;;;-1.47;76.69
46111;BME280;31849;55.992;37.252;2024-01-25T19:02:05;97907.09;;;-1.31;75.74
46111;BME280;31849;55.992;37.252;2024-01-25T19:07:10;97913.25;;;-1.21;75.78
46111;BME280;31849;55.992;37.252;2024-01-25T19:12:15;97913.06;;;-1.31;76.41
46111;BME280;31849;55.992;37.252;2024-01-25T19:17:19;97916.66;;;-1.21;75.82
46111;BME280;31849;55.992;37.252;2024-01-25T19:22:23;97915.53;;;-1.34;75.95
46111;BME280;31849;55.992;37.252;2024-01-25T19:27:29;97918.16;;;-1.31;75.92
46111;BME280;31849;55.992;37.252;2024-01-25T19:32:33;97920.78;;;-1.28;75.66
46111;BME280;31849;55.992;37.252;2024-01-25T19:37:37;97924.78;;;-1.40;75.73
46111;BME280;31849;55.992;37.252;2024-01-25T19:42:42;97923.06;;;-1.40;75.65
46111;BME280;31849;55.992;37.252;2024-01-25T19:47:46;97933.19;;;-1.45;75.38
46111;BME280;31849;55.992;37.252;2024-01-25T19:52:50;97933.16;;;-1.46;75.57
46111;BME280;31849;55.992;37.252;2024-01-25T19:57:56;97937.31;;;-1.51;75.42
46111;BME280;31849;55.992;37.252;2024-01-25T20:03:01;97930.53;;;-1.49;75.56
46111;BME280;31849;55.992;37.252;2024-01-25T20:08:06;97942.50;;;-1.47;75.33
46111;BME280;31849;55.992;37.252;2024-01-25T20:13:12;97937.97;;;-1.60;75.61
46111;BME280;31849;55.992;37.252;2024-01-25T20:18:16;97941.44;;;-1.56;75.15
46111;BME280;31849;55.992;37.252;2024-01-25T20:23:20;97939.72;;;-1.56;75.57
46111;BME280;31849;55.992;37.252;2024-01-25T20:28:25;97949.91;;;-1.57;74.65
46111;BME280;31849;55.992;37.252;2024-01-25T20:33:29;97955.25;;;-1.47;75.26
46111;BME280;31849;55.992;37.252;2024-01-25T20:38:33;97946.53;;;-1.56;75.51
46111;BME280;31849;55.992;37.252;2024-01-25T20:43:39;97953.97;;;-1.67;75.32
46111;BME280;31849;55.992;37.252;2024-01-25T20:48:42;97961.69;;;-1.63;75.20
46111;BME280;31849;55.992;37.252;2024-01-25T20:53:47;97965.34;;;-1.51;74.81
46111;BME280;31849;55.992;37.252;2024-01-25T20:59:06;97968.56;;;-1.60;74.93
46111;BME280;31849;55.992;37.252;2024-01-25T21:04:12;97964.34;;;-1.58;75.29
46111;BME280;31849;55.992;37.252;2024-01-25T21:09:17;97966.75;;;-1.64;75.06
46111;BME280;31849;55.992;37.252;2024-01-25T21:14:23;97970.91;;;-1.68;74.96
46111;BME280;31849;55.992;37.252;2024-01-25T21:19:28;97976.06;;;-1.66;74.90
46111;BME280;31849;55.992;37.252;2024-01-25T21:24:32;97975.97;;;-1.69;74.68
46111;BME280;31849;55.992;37.252;2024-01-25T21:29:37;97983.56;;;-1.72;74.71
46111;BME280;31849;55.992;37.252;2024-01-25T21:34:41;97975.53;;;-1.89;74.99
46111;BME280;31849;55.992;37.252;2024-01-25T21:39:45;97992.63;;;-1.85;74.75
46111;BME280;31849;55.992;37.252;2024-01-25T21:44:50;97999.44;;;-1.84;74.70
46111;BME280;31849;55.992;37.252;2024-01-25T21:49:54;98003.50;;;-1.92;74.77
46111;BME280;31849;55.992;37.252;2024-01-25T21:54:58;98015.06;;;-2.05;75.26
46111;BME280;31849;55.992;37.252;2024-01-25T22:00:07;98010.56;;;-2.16;74.97
46111;BME280;31849;55.992;37.252;2024-01-25T22:05:11;98014.06;;;-2.12;75.12
46111;BME280;31849;55.992;37.252;2024-01-25T22:10:16;98017.59;;;-2.07;74.75
46111;BME280;31849;55.992;37.252;2024-01-25T22:15:21;98016.81;;;-2.04;74.51
46111;BME280;31849;55.992;37.252;2024-01-25T22:20:25;98025.28;;;-2.04;74.26
46111;BME280;31849;55.992;37.252;2024-01-25T22:25:29;98031.06;;;-2.11;74.85
46111;BME280;31849;55.992;37.252;2024-01-25T22:30:34;98033.53;;;-2.14;74.19
46111;BME280;31849;55.992;37.252;2024-01-25T22:35:41;98043.69;;;-2.16;74.43
46111;BME280;31849;55.992;37.252;2024-01-25T22:40:45;98009.22;;;-2.36;74.24
46111;BME280;31849;55.992;37.252;2024-01-25T22:45:50;98039.13;;;-2.27;74.55
46111;BME280;31849;55.992;37.252;2024-01-25T22:50:54;98043.56;;;-2.20;74.04
46111;BME280;31849;55.992;37.252;2024-01-25T22:56:04;98054.56;;;-2.21;73.91
46111;BME280;31849;55.992;37.252;2024-01-25T23:01:10;98053.41;;;-2.34;74.31
46111;BME280;31849;55.992;37.252;2024-01-25T23:06:17;98056.97;;;-2.27;74.03
46111;BME280;31849;55.992;37.252;2024-01-25T23:11:21;98062.84;;;-2.30;74.15
46111;BME280;31849;55.992;37.252;2024-01-25T23:16:26;98066.78;;;-2.41;73.87
46111;BME280;31849;55.992;37.252;2024-01-25T23:21:31;98063.19;;;-2.48;74.09
46111;BME280;31849;55.992;37.252;2024-01-25T23:26:37;98072.53;;;-2.49;74.13
46111;BME280;31849;55.992;37.252;2024-01-25T23:31:43;98088.53;;;-2.53;74.06
46111;BME280;31849;55.992;37.252;2024-01-25T23:36:47;98088.56;;;-2.51;74.00
46111;BME280;31849;55.992;37.252;2024-01-25T23:41:51;98088.63;;;-2.50;73.90
46111;BME280;31849;55.992;37.252;2024-01-25T23:46:56;98100.38;;;-2.55;74.18
46111;BME280;31849;55.992;37.252;2024-01-25T23:52:00;98098.91;;;-2.45;73.50
46111;BME280;31849;55.992;37.252;2024-01-25T23:57:05;98101.00;;;-2.62;73.72
